createdAt,value
2022-08-20T00:02:15.530Z,11.47
2022-08-20T00:04:44.005Z,11.87
2022-08-20T00:07:12.313Z,11.27
2022-08-20T00:09:42.918Z,11.83
2022-08-20T00:12:12.719Z,12.07
2022-08-20T00:14:40.963Z,11.17
2022-08-20T00:17:09.157Z,11.43
2022-08-20T00:19:37.592Z,12.33
2022-08-20T00:22:05.892Z,11.87
2022-08-20T00:24:34.811Z,12.37
2022-08-20T00:27:04.360Z,12.87
2022-08-20T00:29:33.005Z,12.00
2022-08-20T00:32:01.353Z,11.93
2022-08-20T00:34:30.194Z,11.80
2022-08-20T00:36:58.418Z,12.03
2022-08-20T00:39:26.966Z,11.00
2022-08-20T00:41:55.123Z,11.37
2022-08-20T00:44:25.084Z,12.13
2022-08-20T00:46:55.022Z,10.77
2022-08-20T00:49:26.491Z,10.60
2022-08-20T00:51:58.825Z,11.43
2022-08-20T00:54:31.124Z,11.10
2022-08-20T00:57:03.516Z,11.73
2022-08-20T00:59:37.211Z,10.90
2022-08-20T01:02:07.756Z,11.33
2022-08-20T01:04:37.380Z,11.97
2022-08-20T01:07:08.004Z,12.13
2022-08-20T01:09:58.467Z,12.27
2022-08-20T01:12:27.614Z,12.27
2022-08-20T01:14:58.559Z,13.50
2022-08-20T01:17:30.062Z,12.93
2022-08-20T01:20:06.099Z,13.13
2022-08-20T01:23:02.331Z,12.73
2022-08-20T01:25:42.387Z,13.47
2022-08-20T01:28:12.374Z,13.17
2022-08-20T01:30:40.709Z,12.63
2022-08-20T01:33:08.933Z,12.57
2022-08-20T01:35:38.705Z,12.97
2022-08-20T01:38:07.995Z,11.70
2022-08-20T01:41:14.175Z,12.27
2022-08-20T01:43:46.475Z,11.57
2022-08-20T01:46:18.222Z,11.47
2022-08-20T01:48:48.056Z,12.47
2022-08-20T01:51:19.661Z,12.60
2022-08-20T01:53:50.141Z,12.80
2022-08-20T01:56:21.722Z,12.57
2022-08-20T01:58:56.271Z,13.60
2022-08-20T02:01:33.009Z,11.90
2022-08-20T02:04:15.419Z,12.33
2022-08-20T02:06:56.717Z,12.93
2022-08-20T02:09:26.817Z,13.47
2022-08-20T02:11:55.334Z,13.13
2022-08-20T02:14:25.569Z,12.93
2022-08-20T02:16:55.081Z,14.90
2022-08-20T02:19:27.829Z,13.27
2022-08-20T02:21:59.733Z,13.93
2022-08-20T02:24:27.909Z,14.50
2022-08-20T02:26:56.170Z,14.87
2022-08-20T02:29:26.256Z,15.07
2022-08-20T02:32:24.983Z,15.57
2022-08-20T02:34:43.696Z,16.20
2022-08-20T02:37:14.612Z,16.53
2022-08-20T02:39:42.880Z,17.50
2022-08-20T02:42:12.210Z,17.40
2022-08-20T02:44:41.748Z,16.60
2022-08-20T02:47:09.870Z,17.37
2022-08-20T02:49:38.189Z,17.17
2022-08-20T02:52:06.324Z,17.43
2022-08-20T02:54:35.387Z,17.10
2022-08-20T02:57:04.302Z,18.70
2022-08-20T02:59:32.425Z,19.80
2022-08-20T03:02:02.232Z,18.83
2022-08-20T03:04:30.987Z,18.10
2022-08-20T03:07:00.105Z,19.03
2022-08-20T03:09:28.275Z,16.43
2022-08-20T03:11:56.407Z,17.60
2022-08-20T03:14:25.108Z,17.63
2022-08-20T03:16:53.224Z,18.00
2022-08-20T03:19:23.023Z,19.47
2022-08-20T03:21:51.313Z,19.07
2022-08-20T03:24:19.446Z,20.53
2022-08-20T03:26:47.626Z,18.87
2022-08-20T03:29:15.811Z,19.87
2022-08-20T03:31:43.947Z,19.07
2022-08-20T03:34:12.189Z,19.00
2022-08-20T03:36:41.860Z,18.10
2022-08-20T03:39:13.163Z,19.13
2022-08-20T03:41:41.450Z,19.47
2022-08-20T03:44:10.177Z,18.90
2022-08-20T03:46:39.543Z,19.40
2022-08-20T03:49:08.026Z,21.23
2022-08-20T03:51:57.820Z,20.30
2022-08-20T03:54:27.318Z,21.23
2022-08-20T03:57:00.165Z,20.73
2022-08-20T03:59:28.311Z,21.50
2022-08-20T04:01:56.487Z,21.83
2022-08-20T04:04:24.634Z,20.90
2022-08-20T04:06:52.827Z,22.60
2022-08-20T04:09:21.097Z,21.37
2022-08-20T04:11:50.571Z,21.57
2022-08-20T04:14:19.583Z,21.53
2022-08-20T04:16:49.213Z,21.63
2022-08-20T04:19:17.647Z,20.53
2022-08-20T04:21:48.902Z,19.30
2022-08-20T04:24:24.549Z,21.93
2022-08-20T04:27:04.957Z,21.20
2022-08-20T04:29:35.584Z,20.40
2022-08-20T04:32:05.813Z,20.03
2022-08-20T04:34:36.381Z,20.77
2022-08-20T04:37:05.321Z,20.80
2022-08-20T04:39:33.683Z,19.33
2022-08-20T04:42:04.385Z,19.23
2022-08-20T04:44:32.519Z,18.90
2022-08-20T04:47:01.955Z,20.13
2022-08-20T04:49:30.058Z,18.90
2022-08-20T04:51:58.508Z,19.10
2022-08-20T04:54:26.633Z,19.10
2022-08-20T04:56:54.724Z,19.27
2022-08-20T04:59:24.207Z,18.60
2022-08-20T05:01:52.305Z,17.87
2022-08-20T05:04:20.456Z,19.87
2022-08-20T05:06:49.835Z,18.10
2022-08-20T05:09:18.014Z,17.03
2022-08-20T05:11:46.213Z,17.63
2022-08-20T05:14:15.476Z,15.73
2022-08-20T05:16:44.915Z,15.70
2022-08-20T05:19:14.983Z,16.70
2022-08-20T05:21:43.140Z,15.77
2022-08-20T05:24:12.280Z,16.87
2022-08-20T05:26:40.590Z,15.40
2022-08-20T05:29:08.744Z,14.93
2022-08-20T05:31:38.493Z,16.07
2022-08-20T05:34:11.549Z,14.50
2022-08-20T05:36:40.908Z,14.60
2022-08-20T05:39:10.076Z,14.33
2022-08-20T05:41:38.860Z,14.60
2022-08-20T05:44:10.621Z,13.13
2022-08-20T05:46:40.833Z,12.20
2022-08-20T05:49:11.864Z,11.60
2022-08-20T05:51:40.056Z,12.00
2022-08-20T05:54:09.762Z,10.53
2022-08-20T05:56:38.336Z,12.00
2022-08-20T05:59:09.081Z,12.70
2022-08-20T06:01:39.675Z,9.77
2022-08-20T06:04:26.821Z,11.73
2022-08-20T06:07:02.313Z,9.67
2022-08-20T06:09:32.653Z,10.67
2022-08-20T06:12:03.386Z,8.13
2022-08-20T06:14:32.298Z,8.07
2022-08-20T06:17:05.700Z,7.97
2022-08-20T06:19:34.895Z,12.20
2022-08-20T06:22:17.691Z,8.43
2022-08-20T06:24:51.602Z,6.97
2022-08-20T06:27:19.924Z,8.57
2022-08-20T06:29:48.169Z,8.80
2022-08-20T06:32:16.393Z,9.67
2022-08-20T06:34:50.682Z,7.50
2022-08-20T06:37:30.989Z,8.60
2022-08-20T06:40:02.578Z,8.93
2022-08-20T06:42:30.890Z,7.63
2022-08-20T06:45:00.472Z,11.20
2022-08-20T06:47:28.564Z,9.43
2022-08-20T06:49:56.634Z,12.13
2022-08-20T06:52:41.582Z,6.07
2022-08-20T06:55:15.504Z,7.87
2022-08-20T06:57:44.370Z,13.07
2022-08-20T07:00:16.789Z,9.37
2022-08-20T07:02:46.334Z,7.70
2022-08-20T07:05:14.582Z,8.13
2022-08-20T07:07:49.594Z,5.60
2022-08-20T07:10:19.369Z,7.27
2022-08-20T07:12:49.993Z,7.33
2022-08-20T07:15:20.406Z,6.97
2022-08-20T07:17:51.903Z,8.90
2022-08-20T07:20:21.063Z,5.53
2022-08-20T07:22:50.718Z,13.73
2022-08-20T07:25:20.966Z,6.03
2022-08-20T07:27:50.227Z,9.10
2022-08-20T07:30:56.964Z,6.73
2022-08-20T07:33:28.280Z,8.47
2022-08-20T07:35:57.238Z,4.90
2022-08-20T07:38:28.091Z,4.17
2022-08-20T07:40:58.085Z,8.97
2022-08-20T07:43:27.638Z,6.87
2022-08-20T07:46:00.813Z,6.33
2022-08-20T07:48:32.499Z,8.43
2022-08-20T07:51:04.255Z,4.77
2022-08-20T07:53:36.318Z,6.73
2022-08-20T07:56:06.684Z,6.80
2022-08-20T07:58:38.308Z,7.03
2022-08-20T08:01:10.333Z,6.90
2022-08-20T08:03:40.820Z,5.77
2022-08-20T08:06:28.610Z,6.10
2022-08-20T08:09:03.575Z,6.27
2022-08-20T08:11:34.390Z,5.67
2022-08-20T08:14:03.865Z,5.53
2022-08-20T08:16:32.551Z,5.00
2022-08-20T08:19:02.042Z,4.03
2022-08-20T08:21:32.038Z,5.37
2022-08-20T08:24:02.626Z,4.80
2022-08-20T08:26:30.793Z,5.57
2022-08-20T08:28:59.067Z,3.70
2022-08-20T08:31:27.442Z,3.07
2022-08-20T08:33:55.771Z,5.23
2022-08-20T08:36:26.761Z,4.37
2022-08-20T08:38:55.818Z,2.20
2022-08-20T08:41:31.256Z,4.57
2022-08-20T08:44:07.481Z,4.00
2022-08-20T08:46:41.323Z,5.80
2022-08-20T08:49:13.687Z,3.67
2022-08-20T08:51:46.222Z,3.70
2022-08-20T08:54:17.385Z,5.37
2022-08-20T08:56:50.143Z,6.60
2022-08-20T08:59:20.160Z,5.73
2022-08-20T09:01:54.053Z,4.50
2022-08-20T09:04:31.398Z,3.87
2022-08-20T09:07:00.462Z,3.70
2022-08-20T09:09:32.203Z,3.53
2022-08-20T09:12:07.671Z,3.10
2022-08-20T09:14:36.140Z,6.67
2022-08-20T09:17:05.153Z,4.00
2022-08-20T09:19:33.298Z,4.10
2022-08-20T09:22:09.462Z,6.80
2022-08-20T09:24:38.632Z,3.20
2022-08-20T09:27:08.494Z,2.07
2022-08-20T09:29:37.271Z,3.57
2022-08-20T09:32:07.116Z,2.80
2022-08-20T09:34:38.031Z,3.37
2022-08-20T09:37:06.285Z,3.23
2022-08-20T09:39:34.488Z,5.03
2022-08-20T09:42:10.959Z,2.37
2022-08-20T09:44:39.570Z,3.40
2022-08-20T09:47:08.125Z,3.80
2022-08-20T09:49:37.343Z,4.40
2022-08-20T09:52:08.832Z,4.97
2022-08-20T09:54:38.398Z,2.97
2022-08-20T09:57:08.336Z,3.67
2022-08-20T09:59:38.589Z,3.07
2022-08-20T10:02:06.976Z,8.13
2022-08-20T10:04:35.208Z,13.03
2022-08-20T10:07:03.345Z,21.07
2022-08-20T10:09:31.779Z,12.53
2022-08-20T10:11:59.961Z,10.40
2022-08-20T10:14:28.140Z,7.30
2022-08-20T10:16:59.937Z,6.20
2022-08-20T10:19:30.125Z,5.83
2022-08-20T10:21:59.581Z,2.70
2022-08-20T10:24:28.008Z,4.87
2022-08-20T10:26:57.750Z,3.93
2022-08-20T10:29:26.419Z,5.40
2022-08-20T10:31:55.078Z,2.53
2022-08-20T10:34:25.508Z,3.80
2022-08-20T10:36:53.800Z,3.23
2022-08-20T10:39:22.344Z,3.93
2022-08-20T10:41:50.489Z,4.30
2022-08-20T10:44:18.703Z,3.93
2022-08-20T10:46:46.785Z,4.07
2022-08-20T10:49:14.927Z,2.53
2022-08-20T10:51:44.488Z,1.87
2022-08-20T10:54:12.876Z,4.60
2022-08-20T10:56:41.047Z,4.73
2022-08-20T10:59:09.256Z,2.17
2022-08-20T11:01:37.510Z,3.80
2022-08-20T11:04:05.879Z,3.93
2022-08-20T11:06:34.036Z,4.30
2022-08-20T11:09:03.558Z,4.50
2022-08-20T11:11:31.709Z,1.80
2022-08-20T11:13:59.959Z,4.93
2022-08-20T11:16:28.156Z,3.30
2022-08-20T11:18:56.378Z,3.90
2022-08-20T11:21:24.662Z,5.27
2022-08-20T11:23:52.858Z,2.60
2022-08-20T11:26:24.729Z,2.97
2022-08-20T11:28:52.928Z,3.17
2022-08-20T11:31:21.144Z,2.67
2022-08-20T11:33:49.317Z,4.43
2022-08-20T11:36:17.527Z,3.10
2022-08-20T11:38:45.813Z,2.10
2022-08-20T11:41:14.101Z,2.50
2022-08-20T11:43:59.436Z,3.67
2022-08-20T11:46:32.926Z,4.13
2022-08-20T11:49:01.208Z,2.93
2022-08-20T11:51:29.391Z,2.70
2022-08-20T11:53:57.508Z,3.57
2022-08-20T11:56:25.721Z,2.13
2022-08-20T11:58:56.779Z,4.83
2022-08-20T12:01:25.055Z,3.83
2022-08-20T12:03:53.136Z,3.63
2022-08-20T12:06:21.330Z,3.33
2022-08-20T12:08:49.533Z,3.13
2022-08-20T12:11:17.705Z,2.23
2022-08-20T12:13:47.899Z,4.30
2022-08-20T12:16:18.942Z,2.87
2022-08-20T12:18:47.158Z,4.37
2022-08-20T12:21:15.507Z,4.27
2022-08-20T12:23:43.707Z,4.00
2022-08-20T12:26:11.912Z,3.87
2022-08-20T12:28:40.033Z,3.80
2022-08-20T12:31:08.274Z,2.47
2022-08-20T12:33:37.999Z,3.17
2022-08-20T12:36:06.532Z,1.80
2022-08-20T12:38:34.690Z,2.40
2022-08-20T12:41:02.901Z,4.73
2022-08-20T12:43:31.082Z,4.27
2022-08-20T12:45:59.249Z,2.23
2022-08-20T12:48:27.588Z,5.13
2022-08-20T12:50:57.247Z,3.83
2022-08-20T12:53:25.408Z,2.30
2022-08-20T12:55:53.520Z,3.60
2022-08-20T12:58:21.671Z,4.53
2022-08-20T13:00:51.240Z,3.53
2022-08-20T13:03:20.743Z,3.30
2022-08-20T13:05:49.664Z,4.70
2022-08-20T13:08:19.489Z,5.40
2022-08-20T13:10:48.468Z,4.80
2022-08-20T13:13:20.331Z,4.53
2022-08-20T13:15:50.755Z,4.17
2022-08-20T13:18:19.049Z,2.37
2022-08-20T13:20:47.832Z,2.10
2022-08-20T13:23:16.084Z,3.03
2022-08-20T13:25:45.589Z,1.73
2022-08-20T13:28:13.728Z,2.70
2022-08-20T13:30:41.954Z,3.07
2022-08-20T13:33:10.452Z,3.53
2022-08-20T13:35:40.600Z,1.70
2022-08-20T13:38:08.753Z,2.27
2022-08-20T13:40:37.128Z,4.57
2022-08-20T13:43:11.720Z,2.60
2022-08-20T13:45:41.358Z,2.37
2022-08-20T13:48:15.234Z,2.67
2022-08-20T13:50:44.170Z,1.97
2022-08-20T13:53:16.475Z,2.47
2022-08-20T13:55:44.920Z,2.03
2022-08-20T13:58:14.729Z,1.43
2022-08-20T14:00:42.898Z,3.10
2022-08-20T14:03:11.136Z,2.03
2022-08-20T14:05:40.062Z,3.43
2022-08-20T14:08:10.592Z,1.50
2022-08-20T14:10:40.171Z,2.90
2022-08-20T14:13:15.319Z,1.80
2022-08-20T14:15:45.285Z,1.97
2022-08-20T14:18:14.357Z,2.17
2022-08-20T14:20:45.418Z,1.67
2022-08-20T14:23:14.296Z,1.50
2022-08-20T14:25:45.353Z,3.20
2022-08-20T14:28:15.004Z,2.10
2022-08-20T14:30:53.420Z,1.07
2022-08-20T14:33:22.398Z,1.90
2022-08-20T14:35:50.609Z,2.00
2022-08-20T14:38:18.796Z,1.47
2022-08-20T14:40:47.305Z,2.83
2022-08-20T14:43:15.447Z,2.67
2022-08-20T14:45:43.594Z,2.87
2022-08-20T14:48:14.868Z,3.17
2022-08-20T14:50:43.123Z,1.63
2022-08-20T14:53:11.230Z,1.40
2022-08-20T14:55:40.197Z,1.40
2022-08-20T14:58:09.767Z,2.30
2022-08-20T15:00:37.985Z,2.60
2022-08-20T15:03:06.200Z,3.23
2022-08-20T15:05:39.605Z,4.10
2022-08-20T15:08:10.013Z,3.37
2022-08-20T15:10:39.855Z,2.70
2022-08-20T15:13:08.264Z,1.47
2022-08-20T15:15:36.814Z,2.90
2022-08-20T15:18:05.331Z,2.00
2022-08-20T15:20:36.660Z,2.93
2022-08-20T15:23:05.532Z,2.67
2022-08-20T15:25:36.547Z,3.60
2022-08-20T15:28:08.474Z,2.17
2022-08-20T15:30:38.094Z,2.77
2022-08-20T15:33:06.327Z,7.30
2022-08-20T15:35:35.842Z,2.60
2022-08-20T15:38:04.188Z,2.67
2022-08-20T15:40:33.566Z,2.60
2022-08-20T15:43:03.554Z,2.37
2022-08-20T15:45:32.135Z,1.60
2022-08-20T15:48:08.748Z,4.17
2022-08-20T15:50:55.031Z,3.27
2022-08-20T15:53:29.054Z,1.50
2022-08-20T15:56:04.773Z,2.87
2022-08-20T15:58:38.489Z,3.57
2022-08-20T16:01:25.155Z,1.93
2022-08-20T16:04:20.568Z,2.43
2022-08-20T16:06:53.661Z,5.33
2022-08-20T16:09:45.083Z,6.23
2022-08-20T16:12:17.881Z,3.70
2022-08-20T16:14:49.127Z,2.77
2022-08-20T16:17:22.393Z,4.20
2022-08-20T16:19:57.376Z,2.97
2022-08-20T16:22:29.587Z,2.40
2022-08-20T16:24:58.114Z,2.33
2022-08-20T16:27:37.068Z,3.70
2022-08-20T16:30:09.006Z,3.27
2022-08-20T16:32:43.275Z,3.03
2022-08-20T16:35:30.093Z,5.57
2022-08-20T16:38:20.889Z,3.23
2022-08-20T16:40:52.784Z,4.23
2022-08-20T16:43:26.819Z,3.60
2022-08-20T16:46:00.161Z,2.10
2022-08-20T16:48:34.799Z,5.37
2022-08-20T16:51:07.577Z,3.97
2022-08-20T16:53:37.206Z,2.63
2022-08-20T16:56:06.037Z,2.57
2022-08-20T16:58:34.185Z,2.83
2022-08-20T17:01:08.929Z,2.03
2022-08-20T17:03:39.920Z,3.97
2022-08-20T17:06:18.227Z,4.10
2022-08-20T17:08:51.446Z,2.27
2022-08-20T17:11:26.991Z,3.33
2022-08-20T17:14:12.036Z,3.10
2022-08-20T17:16:43.786Z,3.27
2022-08-20T17:19:15.857Z,2.40
2022-08-20T17:21:45.161Z,2.83
2022-08-20T17:24:25.099Z,3.00
2022-08-20T17:27:00.626Z,3.37
2022-08-20T17:29:31.801Z,5.53
2022-08-20T17:32:02.502Z,3.33
2022-08-20T17:34:33.534Z,1.70
2022-08-20T17:37:07.166Z,3.77
2022-08-20T17:39:45.373Z,3.90
2022-08-20T17:42:18.943Z,3.07
2022-08-20T17:45:10.442Z,3.80
2022-08-20T17:47:41.095Z,5.17
2022-08-20T17:50:14.445Z,3.10
2022-08-20T17:52:47.592Z,3.27
2022-08-20T17:55:17.298Z,4.13
2022-08-20T17:57:48.879Z,4.27
2022-08-20T18:00:25.348Z,3.30
2022-08-20T18:02:56.000Z,3.03
2022-08-20T18:05:25.130Z,3.67
2022-08-20T18:08:15.841Z,3.40
2022-08-20T18:10:56.079Z,4.73
2022-08-20T18:13:44.974Z,4.87
2022-08-20T18:16:24.652Z,3.73
2022-08-20T18:18:57.588Z,6.97
2022-08-20T18:21:56.651Z,4.30
2022-08-20T18:24:30.828Z,3.80
2022-08-20T18:27:08.952Z,3.83
2022-08-20T18:29:42.842Z,5.27
2022-08-20T18:32:26.397Z,3.43
2022-08-20T18:34:54.506Z,4.57
2022-08-20T18:37:27.746Z,5.30
2022-08-20T18:40:08.796Z,9.47
2022-08-20T18:42:38.874Z,11.90
2022-08-20T18:45:08.509Z,11.03
2022-08-20T18:47:45.761Z,12.60
2022-08-20T18:50:26.259Z,8.07
2022-08-20T18:53:09.481Z,7.60
2022-08-20T18:55:44.587Z,6.67
2022-08-20T18:58:16.238Z,8.20
2022-08-20T19:00:48.921Z,11.37
2022-08-20T19:03:21.897Z,5.97
2022-08-20T19:06:06.555Z,5.33
2022-08-20T19:08:45.809Z,6.47
2022-08-20T19:11:32.975Z,5.53
2022-08-20T19:14:28.533Z,6.77
2022-08-20T19:17:01.633Z,6.37
2022-08-20T19:19:32.942Z,3.67
2022-08-20T19:22:04.342Z,3.53
2022-08-20T19:24:39.609Z,7.87
2022-08-20T19:27:10.622Z,7.43
2022-08-20T19:29:44.212Z,3.47
2022-08-20T19:32:21.666Z,5.83
2022-08-20T19:34:54.296Z,6.43
2022-08-20T19:37:35.044Z,4.37
2022-08-20T19:40:22.077Z,6.23
2022-08-20T19:42:52.948Z,7.17
2022-08-20T19:45:29.280Z,10.13
2022-08-20T19:48:13.680Z,9.93
2022-08-20T19:50:47.799Z,7.27
2022-08-20T19:53:30.183Z,6.53
2022-08-20T19:56:01.921Z,6.33
2022-08-20T19:58:31.594Z,6.80
2022-08-20T20:01:03.951Z,5.30
2022-08-20T20:03:37.660Z,5.53
2022-08-20T20:06:16.635Z,6.03
2022-08-20T20:08:52.810Z,7.67
2022-08-20T20:11:28.119Z,12.07
2022-08-20T20:14:01.221Z,11.80
2022-08-20T20:16:32.254Z,8.67
2022-08-20T20:19:24.751Z,7.27
2022-08-20T20:21:51.511Z,9.37
2022-08-20T20:24:27.047Z,5.53
2022-08-20T20:26:55.777Z,8.67
2022-08-20T20:29:27.014Z,8.03
2022-08-20T20:31:59.043Z,5.53
2022-08-20T20:34:29.948Z,7.13
2022-08-20T20:37:06.108Z,6.60
2022-08-20T20:39:37.095Z,7.87
2022-08-20T20:42:09.111Z,7.73
2022-08-20T20:44:39.258Z,6.30
2022-08-20T20:47:18.080Z,5.93
2022-08-20T20:49:52.525Z,6.83
2022-08-20T20:52:23.446Z,6.33
2022-08-20T20:54:53.172Z,5.73
2022-08-20T20:57:38.153Z,3.00
2022-08-20T21:00:10.647Z,5.10
2022-08-20T21:02:40.657Z,5.30
2022-08-20T21:05:09.536Z,2.83
2022-08-20T21:07:50.345Z,4.50
2022-08-20T21:10:20.948Z,2.43
2022-08-20T21:12:52.627Z,3.07
2022-08-20T21:15:22.232Z,4.70
2022-08-20T21:17:52.367Z,2.27
2022-08-20T21:20:22.360Z,3.17
2022-08-20T21:22:50.479Z,5.40
2022-08-20T21:25:20.334Z,3.53
2022-08-20T21:27:50.799Z,4.20
2022-08-20T21:30:20.472Z,4.57
2022-08-20T21:32:48.712Z,3.43
2022-08-20T21:35:19.045Z,5.37
2022-08-20T21:37:47.208Z,4.80
2022-08-20T21:40:16.200Z,6.80
2022-08-20T21:42:50.049Z,11.37
2022-08-20T21:45:19.868Z,12.23
2022-08-20T21:47:49.084Z,7.20
2022-08-20T21:50:19.987Z,5.00
2022-08-20T21:52:55.448Z,4.73
2022-08-20T21:55:29.936Z,3.20
2022-08-20T21:57:59.165Z,3.10
2022-08-20T22:00:54.099Z,3.23
2022-08-20T22:03:23.614Z,4.37
2022-08-20T22:05:53.608Z,4.13
2022-08-20T22:08:24.278Z,3.47
2022-08-20T22:10:57.811Z,3.30
2022-08-20T22:13:28.266Z,7.37
2022-08-20T22:15:56.407Z,6.20
2022-08-20T22:18:24.586Z,4.57
2022-08-20T22:20:54.251Z,8.57
2022-08-20T22:23:22.844Z,5.20
2022-08-20T22:25:51.429Z,5.90
2022-08-20T22:28:20.166Z,5.40
2022-08-20T22:30:48.734Z,5.90
2022-08-20T22:33:21.776Z,7.70
2022-08-20T22:35:52.280Z,6.50
2022-08-20T22:38:22.225Z,7.93
2022-08-20T22:40:50.475Z,7.63
2022-08-20T22:43:18.795Z,5.50
2022-08-20T22:45:48.843Z,6.17
2022-08-20T22:48:18.332Z,5.97
2022-08-20T22:50:46.741Z,5.57
2022-08-20T22:53:15.889Z,5.17
2022-08-20T22:55:45.960Z,5.67
2022-08-20T22:58:14.112Z,5.63
2022-08-20T23:00:44.341Z,7.20
2022-08-20T23:03:12.722Z,5.87
2022-08-20T23:05:40.885Z,7.07
2022-08-20T23:08:09.442Z,8.67
2022-08-20T23:10:39.352Z,4.70
2022-08-20T23:13:08.957Z,4.43
2022-08-20T23:15:41.512Z,6.90
2022-08-20T23:18:19.427Z,4.83
2022-08-20T23:20:52.813Z,6.70
2022-08-20T23:23:21.314Z,6.90
2022-08-20T23:25:49.758Z,6.60
2022-08-20T23:28:20.964Z,8.07
2022-08-20T23:30:49.163Z,6.10
2022-08-20T23:33:17.439Z,6.27
2022-08-20T23:35:46.704Z,8.03
2022-08-20T23:38:15.268Z,6.33
2022-08-20T23:40:44.029Z,4.37
2022-08-20T23:43:12.302Z,6.20
2022-08-20T23:45:42.012Z,5.37
2022-08-20T23:48:10.481Z,4.67
2022-08-20T23:50:39.279Z,4.10
2022-08-20T23:53:07.752Z,3.27
2022-08-20T23:55:36.351Z,4.43
2022-08-20T23:58:04.916Z,5.10
